Terminal Aerodrome Forecast
Issued by NWS Quad Cities IA IL

Home | Current Version | Previous Version | Graphics & Text | Print | Product List | Glossary On
Versions: 1 2 3 4 5 6 7 8 9 10 11 12 13 14 15 16 17 18 19 20 21 22 23 24 25 26 27 28 29
000
FTUS43 KDVN 181705 AAE
TAFMLI
TAF AMD
KMLI 181705Z 1817/1912 05016G23KT 5SM -DZ BR BKN020 OVC035
     FM182100 33015G22KT 3SM -SN BR OVC012
     FM190000 33012G19KT P6SM VCSH BKN020
     FM190400 31010KT P6SM BKN030=

USA.gov is the U.S. government's official web portal to all federal, state and local government web resources and services.